sensor_id;sensor_type;location;lat;lon;timestamp;P1;durP1;ratioP1;P2;durP2;ratioP2
33421;SDS011;19763;55.798;37.782;2024-03-23T00:53:28;37.95;;;26.30;;
33421;SDS011;19763;55.798;37.782;2024-03-23T00:55:54;41.25;;;26.40;;
33421;SDS011;19763;55.798;37.782;2024-03-23T00:58:19;41.00;;;25.67;;
33421;SDS011;19763;55.798;37.782;2024-03-23T01:00:45;41.20;;;25.33;;
33421;SDS011;19763;55.798;37.782;2024-03-23T01:03:10;42.28;;;27.50;;
33421;SDS011;19763;55.798;37.782;2024-03-23T01:05:36;41.30;;;26.60;;
33421;SDS011;19763;55.798;37.782;2024-03-23T01:08:02;42.03;;;26.55;;
33421;SDS011;19763;55.798;37.782;2024-03-23T01:10:27;42.55;;;27.40;;
33421;SDS011;19763;55.798;37.782;2024-03-23T01:12:53;43.35;;;27.17;;
33421;SDS011;19763;55.798;37.782;2024-03-23T01:15:19;42.63;;;27.40;;
33421;SDS011;19763;55.798;37.782;2024-03-23T01:17:44;45.47;;;27.33;;
33421;SDS011;19763;55.798;37.782;2024-03-23T01:20:10;40.20;;;27.23;;
33421;SDS011;19763;55.798;37.782;2024-03-23T01:22:36;45.15;;;27.73;;
33421;SDS011;19763;55.798;37.782;2024-03-23T01:25:01;42.83;;;27.60;;
33421;SDS011;19763;55.798;37.782;2024-03-23T01:27:28;44.20;;;27.40;;
33421;SDS011;19763;55.798;37.782;2024-03-23T01:29:54;40.20;;;26.05;;
33421;SDS011;19763;55.798;37.782;2024-03-23T01:32:20;42.00;;;26.92;;
33421;SDS011;19763;55.798;37.782;2024-03-23T01:34:46;43.30;;;27.27;;
33421;SDS011;19763;55.798;37.782;2024-03-23T01:37:12;46.17;;;29.05;;
33421;SDS011;19763;55.798;37.782;2024-03-23T01:39:38;45.67;;;27.13;;
33421;SDS011;19763;55.798;37.782;2024-03-23T01:42:03;43.47;;;27.65;;
33421;SDS011;19763;55.798;37.782;2024-03-23T01:44:29;45.30;;;28.23;;
33421;SDS011;19763;55.798;37.782;2024-03-23T01:46:55;45.35;;;28.05;;
33421;SDS011;19763;55.798;37.782;2024-03-23T01:49:20;46.92;;;29.15;;
33421;SDS011;19763;55.798;37.782;2024-03-23T01:51:46;42.17;;;27.75;;
33421;SDS011;19763;55.798;37.782;2024-03-23T01:54:12;43.70;;;27.08;;
33421;SDS011;19763;55.798;37.782;2024-03-23T01:56:38;47.08;;;28.50;;
33421;SDS011;19763;55.798;37.782;2024-03-23T01:59:04;45.78;;;29.15;;
33421;SDS011;19763;55.798;37.782;2024-03-23T02:01:31;41.95;;;28.27;;
33421;SDS011;19763;55.798;37.782;2024-03-23T02:03:58;47.63;;;28.98;;
33421;SDS011;19763;55.798;37.782;2024-03-23T02:06:24;45.80;;;29.05;;
33421;SDS011;19763;55.798;37.782;2024-03-23T02:08:50;44.97;;;28.38;;
33421;SDS011;19763;55.798;37.782;2024-03-23T02:11:16;45.88;;;28.85;;
33421;SDS011;19763;55.798;37.782;2024-03-23T02:13:42;46.30;;;28.33;;
33421;SDS011;19763;55.798;37.782;2024-03-23T02:16:08;46.25;;;29.13;;
33421;SDS011;19763;55.798;37.782;2024-03-23T02:18:34;46.13;;;29.40;;
33421;SDS011;19763;55.798;37.782;2024-03-23T02:21:00;47.17;;;28.38;;
33421;SDS011;19763;55.798;37.782;2024-03-23T02:23:25;44.90;;;28.42;;
33421;SDS011;19763;55.798;37.782;2024-03-23T02:25:51;47.47;;;28.00;;
33421;SDS011;19763;55.798;37.782;2024-03-23T02:28:19;47.15;;;28.73;;
33421;SDS011;19763;55.798;37.782;2024-03-23T02:30:45;42.58;;;27.20;;
33421;SDS011;19763;55.798;37.782;2024-03-23T02:33:11;46.05;;;27.85;;
33421;SDS011;19763;55.798;37.782;2024-03-23T02:35:36;44.33;;;28.80;;
33421;SDS011;19763;55.798;37.782;2024-03-23T02:38:02;43.80;;;27.85;;
33421;SDS011;19763;55.798;37.782;2024-03-23T02:40:28;41.17;;;27.75;;
33421;SDS011;19763;55.798;37.782;2024-03-23T02:42:54;39.08;;;26.80;;
33421;SDS011;19763;55.798;37.782;2024-03-23T02:45:20;41.42;;;26.80;;
33421;SDS011;19763;55.798;37.782;2024-03-23T02:47:46;42.72;;;27.58;;
33421;SDS011;19763;55.798;37.782;2024-03-23T02:50:12;42.90;;;28.55;;
33421;SDS011;19763;55.798;37.782;2024-03-23T02:52:40;42.88;;;26.98;;
33421;SDS011;19763;55.798;37.782;2024-03-23T02:55:05;42.35;;;27.83;;
33421;SDS011;19763;55.798;37.782;2024-03-23T02:57:31;42.92;;;27.33;;
33421;SDS011;19763;55.798;37.782;2024-03-23T02:59:57;38.50;;;25.67;;
33421;SDS011;19763;55.798;37.782;2024-03-23T03:02:23;41.95;;;26.98;;
33421;SDS011;19763;55.798;37.782;2024-03-23T03:04:49;42.40;;;27.33;;
33421;SDS011;19763;55.798;37.782;2024-03-23T03:07:14;41.42;;;26.80;;
33421;SDS011;19763;55.798;37.782;2024-03-23T03:09:40;38.80;;;25.02;;
33421;SDS011;19763;55.798;37.782;2024-03-23T03:12:06;41.05;;;26.25;;
33421;SDS011;19763;55.798;37.782;2024-03-23T03:14:32;39.55;;;27.23;;
33421;SDS011;19763;55.798;37.782;2024-03-23T03:16:59;40.55;;;25.77;;
33421;SDS011;19763;55.798;37.782;2024-03-23T03:19:24;39.45;;;25.80;;
33421;SDS011;19763;55.798;37.782;2024-03-23T03:21:50;43.38;;;27.33;;
33421;SDS011;19763;55.798;37.782;2024-03-23T03:24:16;40.83;;;26.30;;
33421;SDS011;19763;55.798;37.782;2024-03-23T03:26:42;41.75;;;26.95;;
33421;SDS011;19763;55.798;37.782;2024-03-23T03:29:08;41.22;;;25.80;;
33421;SDS011;19763;55.798;37.782;2024-03-23T03:31:34;43.65;;;27.42;;
33421;SDS011;19763;55.798;37.782;2024-03-23T03:34:00;39.67;;;25.85;;
33421;SDS011;19763;55.798;37.782;2024-03-23T03:36:26;40.92;;;25.90;;
33421;SDS011;19763;55.798;37.782;2024-03-23T03:38:51;39.08;;;27.00;;
33421;SDS011;19763;55.798;37.782;2024-03-23T03:41:18;41.53;;;26.65;;
33421;SDS011;19763;55.798;37.782;2024-03-23T03:43:44;42.30;;;27.33;;
33421;SDS011;19763;55.798;37.782;2024-03-23T03:46:09;38.30;;;25.88;;
33421;SDS011;19763;55.798;37.782;2024-03-23T03:48:36;40.80;;;27.20;;
33421;SDS011;19763;55.798;37.782;2024-03-23T03:51:03;38.60;;;25.48;;
33421;SDS011;19763;55.798;37.782;2024-03-23T03:53:29;39.33;;;26.52;;
33421;SDS011;19763;55.798;37.782;2024-03-23T03:55:55;43.92;;;26.98;;
33421;SDS011;19763;55.798;37.782;2024-03-23T03:58:21;38.60;;;25.58;;
33421;SDS011;19763;55.798;37.782;2024-03-23T04:00:47;43.10;;;26.00;;
33421;SDS011;19763;55.798;37.782;2024-03-23T04:03:12;41.30;;;26.65;;
33421;SDS011;19763;55.798;37.782;2024-03-23T04:05:38;43.28;;;27.15;;
33421;SDS011;19763;55.798;37.782;2024-03-23T04:08:04;40.67;;;27.05;;
33421;SDS011;19763;55.798;37.782;2024-03-23T04:10:31;40.58;;;25.58;;
33421;SDS011;19763;55.798;37.782;2024-03-23T04:12:56;42.30;;;26.95;;
33421;SDS011;19763;55.798;37.782;2024-03-23T04:15:22;38.78;;;25.65;;
33421;SDS011;19763;55.798;37.782;2024-03-23T04:17:48;38.83;;;26.17;;
33421;SDS011;19763;55.798;37.782;2024-03-23T04:20:13;38.65;;;25.77;;
33421;SDS011;19763;55.798;37.782;2024-03-23T04:22:42;42.15;;;26.45;;
33421;SDS011;19763;55.798;37.782;2024-03-23T04:25:08;39.13;;;23.98;;
33421;SDS011;19763;55.798;37.782;2024-03-23T04:27:38;37.17;;;24.65;;
33421;SDS011;19763;55.798;37.782;2024-03-23T04:30:05;38.83;;;24.70;;
33421;SDS011;19763;55.798;37.782;2024-03-23T04:32:35;37.85;;;24.15;;
33421;SDS011;19763;55.798;37.782;2024-03-23T04:35:01;38.17;;;24.08;;
33421;SDS011;19763;55.798;37.782;2024-03-23T04:37:31;35.28;;;24.23;;
33421;SDS011;19763;55.798;37.782;2024-03-23T04:39:58;38.10;;;24.50;;
33421;SDS011;19763;55.798;37.782;2024-03-23T04:42:24;36.67;;;23.42;;
33421;SDS011;19763;55.798;37.782;2024-03-23T04:44:50;33.22;;;22.38;;
33421;SDS011;19763;55.798;37.782;2024-03-23T04:47:15;34.20;;;22.17;;
33421;SDS011;19763;55.798;37.782;2024-03-23T04:49:42;40.20;;;23.75;;
33421;SDS011;19763;55.798;37.782;2024-03-23T04:52:07;36.28;;;23.58;;
33421;SDS011;19763;55.798;37.782;2024-03-23T04:54:33;34.65;;;23.40;;
33421;SDS011;19763;55.798;37.782;2024-03-23T04:56:58;34.45;;;22.40;;
33421;SDS011;19763;55.798;37.782;2024-03-23T04:59:25;37.17;;;23.40;;
33421;SDS011;19763;55.798;37.782;2024-03-23T05:01:50;38.38;;;24.02;;
33421;SDS011;19763;55.798;37.782;2024-03-23T05:04:16;34.38;;;22.58;;
33421;SDS011;19763;55.798;37.782;2024-03-23T05:06:41;36.13;;;22.70;;
33421;SDS011;19763;55.798;37.782;2024-03-23T05:09:07;37.20;;;22.88;;
33421;SDS011;19763;55.798;37.782;2024-03-23T05:11:37;31.77;;;21.30;;
33421;SDS011;19763;55.798;37.782;2024-03-23T05:14:03;33.35;;;21.95;;
33421;SDS011;19763;55.798;37.782;2024-03-23T05:16:29;31.15;;;22.38;;
33421;SDS011;19763;55.798;37.782;2024-03-23T05:18:55;32.97;;;22.65;;
33421;SDS011;19763;55.798;37.782;2024-03-23T05:21:20;33.13;;;21.80;;
33421;SDS011;19763;55.798;37.782;2024-03-23T05:23:46;33.55;;;21.85;;
33421;SDS011;19763;55.798;37.782;2024-03-23T05:26:12;31.40;;;22.25;;
33421;SDS011;19763;55.798;37.782;2024-03-23T05:28:38;31.90;;;22.52;;
33421;SDS011;19763;55.798;37.782;2024-03-23T05:31:04;33.95;;;22.98;;
33421;SDS011;19763;55.798;37.782;2024-03-23T05:33:30;31.25;;;21.88;;
33421;SDS011;19763;55.798;37.782;2024-03-23T05:35:56;31.35;;;21.75;;
33421;SDS011;19763;55.798;37.782;2024-03-23T05:38:22;33.20;;;23.00;;
33421;SDS011;19763;55.798;37.782;2024-03-23T05:40:57;30.65;;;20.95;;
33421;SDS011;19763;55.798;37.782;2024-03-23T05:43:24;32.55;;;22.02;;
33421;SDS011;19763;55.798;37.782;2024-03-23T05:45:57;33.33;;;22.10;;
33421;SDS011;19763;55.798;37.782;2024-03-23T05:48:24;31.15;;;20.83;;
33421;SDS011;19763;55.798;37.782;2024-03-23T05:50:52;31.65;;;21.48;;
33421;SDS011;19763;55.798;37.782;2024-03-23T05:53:18;33.22;;;21.92;;
33421;SDS011;19763;55.798;37.782;2024-03-23T05:55:48;32.47;;;21.38;;
33421;SDS011;19763;55.798;37.782;2024-03-23T05:58:17;31.85;;;21.58;;
33421;SDS011;19763;55.798;37.782;2024-03-23T06:00:44;32.72;;;22.02;;
33421;SDS011;19763;55.798;37.782;2024-03-23T06:03:10;28.55;;;20.17;;
33421;SDS011;19763;55.798;37.782;2024-03-23T06:05:36;31.85;;;22.42;;
33421;SDS011;19763;55.798;37.782;2024-03-23T06:08:02;30.73;;;21.30;;
33421;SDS011;19763;55.798;37.782;2024-03-23T06:10:28;28.35;;;21.20;;
33421;SDS011;19763;55.798;37.782;2024-03-23T06:12:54;33.97;;;22.50;;
33421;SDS011;19763;55.798;37.782;2024-03-23T06:15:19;30.83;;;21.15;;
33421;SDS011;19763;55.798;37.782;2024-03-23T06:17:45;30.92;;;21.15;;
33421;SDS011;19763;55.798;37.782;2024-03-23T06:20:12;31.92;;;21.77;;
33421;SDS011;19763;55.798;37.782;2024-03-23T06:22:38;30.45;;;20.58;;
33421;SDS011;19763;55.798;37.782;2024-03-23T06:25:04;29.70;;;21.00;;
33421;SDS011;19763;55.798;37.782;2024-03-23T06:27:30;31.05;;;20.15;;
33421;SDS011;19763;55.798;37.782;2024-03-23T06:29:57;29.25;;;20.60;;
33421;SDS011;19763;55.798;37.782;2024-03-23T06:32:27;28.40;;;20.58;;
33421;SDS011;19763;55.798;37.782;2024-03-23T06:34:54;30.40;;;20.33;;
33421;SDS011;19763;55.798;37.782;2024-03-23T06:37:20;27.17;;;20.17;;
33421;SDS011;19763;55.798;37.782;2024-03-23T06:39:46;28.23;;;19.60;;
33421;SDS011;19763;55.798;37.782;2024-03-23T06:42:12;29.15;;;19.80;;
33421;SDS011;19763;55.798;37.782;2024-03-23T06:44:38;27.10;;;19.23;;
33421;SDS011;19763;55.798;37.782;2024-03-23T06:47:04;25.38;;;18.38;;
33421;SDS011;19763;55.798;37.782;2024-03-23T06:49:30;27.23;;;18.80;;
33421;SDS011;19763;55.798;37.782;2024-03-23T06:51:55;25.65;;;18.63;;
33421;SDS011;19763;55.798;37.782;2024-03-23T06:54:21;27.60;;;18.85;;
33421;SDS011;19763;55.798;37.782;2024-03-23T06:56:47;29.35;;;18.92;;
33421;SDS011;19763;55.798;37.782;2024-03-23T06:59:13;24.50;;;17.23;;
33421;SDS011;19763;55.798;37.782;2024-03-23T07:01:38;24.65;;;18.65;;
33421;SDS011;19763;55.798;37.782;2024-03-23T07:04:04;27.90;;;18.48;;
33421;SDS011;19763;55.798;37.782;2024-03-23T07:06:30;24.02;;;16.70;;
33421;SDS011;19763;55.798;37.782;2024-03-23T07:08:56;23.40;;;18.23;;
33421;SDS011;19763;55.798;37.782;2024-03-23T07:11:22;22.08;;;16.63;;
33421;SDS011;19763;55.798;37.782;2024-03-23T07:13:51;26.38;;;17.80;;
33421;SDS011;19763;55.798;37.782;2024-03-23T07:16:20;23.95;;;16.65;;
33421;SDS011;19763;55.798;37.782;2024-03-23T07:18:45;24.55;;;17.63;;
33421;SDS011;19763;55.798;37.782;2024-03-23T07:21:11;21.13;;;15.85;;
33421;SDS011;19763;55.798;37.782;2024-03-23T07:23:37;21.77;;;16.55;;
33421;SDS011;19763;55.798;37.782;2024-03-23T07:26:03;21.77;;;15.38;;
33421;SDS011;19763;55.798;37.782;2024-03-23T07:28:30;21.20;;;16.35;;
33421;SDS011;19763;55.798;37.782;2024-03-23T07:33:30;21.02;;;15.45;;
33421;SDS011;19763;55.798;37.782;2024-03-23T07:35:56;21.20;;;15.02;;
33421;SDS011;19763;55.798;37.782;2024-03-23T07:38:23;19.17;;;14.73;;
33421;SDS011;19763;55.798;37.782;2024-03-23T07:40:49;19.15;;;14.35;;
33421;SDS011;19763;55.798;37.782;2024-03-23T07:43:21;18.83;;;14.85;;
33421;SDS011;19763;55.798;37.782;2024-03-23T07:45:51;17.90;;;13.52;;
33421;SDS011;19763;55.798;37.782;2024-03-23T07:48:18;19.98;;;15.02;;
33421;SDS011;19763;55.798;37.782;2024-03-23T07:50:44;22.02;;;15.60;;
33421;SDS011;19763;55.798;37.782;2024-03-23T07:53:10;20.27;;;14.80;;
33421;SDS011;19763;55.798;37.782;2024-03-23T07:55:35;20.02;;;15.32;;
33421;SDS011;19763;55.798;37.782;2024-03-23T07:58:01;20.60;;;14.85;;
33421;SDS011;19763;55.798;37.782;2024-03-23T08:00:26;17.58;;;14.23;;
33421;SDS011;19763;55.798;37.782;2024-03-23T08:02:52;19.80;;;13.77;;
33421;SDS011;19763;55.798;37.782;2024-03-23T08:05:17;17.55;;;13.73;;
33421;SDS011;19763;55.798;37.782;2024-03-23T08:07:43;18.45;;;12.98;;
33421;SDS011;19763;55.798;37.782;2024-03-23T08:10:09;18.60;;;14.20;;
33421;SDS011;19763;55.798;37.782;2024-03-23T08:12:34;17.30;;;12.60;;
33421;SDS011;19763;55.798;37.782;2024-03-23T08:15:00;15.48;;;12.45;;
33421;SDS011;19763;55.798;37.782;2024-03-23T08:17:25;16.52;;;13.55;;
33421;SDS011;19763;55.798;37.782;2024-03-23T08:19:51;17.20;;;13.82;;
33421;SDS011;19763;55.798;37.782;2024-03-23T08:22:17;19.33;;;13.43;;
33421;SDS011;19763;55.798;37.782;2024-03-23T08:24:44;20.00;;;13.32;;
33421;SDS011;19763;55.798;37.782;2024-03-23T08:27:10;18.52;;;12.50;;
33421;SDS011;19763;55.798;37.782;2024-03-23T08:29:35;17.92;;;14.25;;
33421;SDS011;19763;55.798;37.782;2024-03-23T08:32:01;17.52;;;13.55;;
33421;SDS011;19763;55.798;37.782;2024-03-23T08:34:27;14.30;;;11.73;;
33421;SDS011;19763;55.798;37.782;2024-03-23T08:36:52;17.90;;;12.48;;
33421;SDS011;19763;55.798;37.782;2024-03-23T08:39:18;15.30;;;12.75;;
33421;SDS011;19763;55.798;37.782;2024-03-23T08:41:44;18.92;;;14.20;;
33421;SDS011;19763;55.798;37.782;2024-03-23T08:44:11;18.88;;;13.25;;
33421;SDS011;19763;55.798;37.782;2024-03-23T08:46:37;16.80;;;12.70;;
33421;SDS011;19763;55.798;37.782;2024-03-23T08:49:02;19.25;;;12.77;;
33421;SDS011;19763;55.798;37.782;2024-03-23T08:51:28;17.05;;;13.88;;
33421;SDS011;19763;55.798;37.782;2024-03-23T08:53:54;16.05;;;12.90;;
33421;SDS011;19763;55.798;37.782;2024-03-23T08:56:19;15.98;;;12.13;;
33421;SDS011;19763;55.798;37.782;2024-03-23T08:58:45;17.63;;;12.60;;
33421;SDS011;19763;55.798;37.782;2024-03-23T09:01:11;16.17;;;12.07;;
33421;SDS011;19763;55.798;37.782;2024-03-23T09:03:41;15.25;;;12.90;;
33421;SDS011;19763;55.798;37.782;2024-03-23T09:06:10;18.38;;;12.48;;
33421;SDS011;19763;55.798;37.782;2024-03-23T09:08:37;17.20;;;12.63;;
33421;SDS011;19763;55.798;37.782;2024-03-23T09:11:05;15.48;;;12.65;;
33421;SDS011;19763;55.798;37.782;2024-03-23T09:13:35;15.05;;;12.43;;
33421;SDS011;19763;55.798;37.782;2024-03-23T09:16:02;15.10;;;11.70;;
33421;SDS011;19763;55.798;37.782;2024-03-23T09:18:31;15.80;;;11.70;;
33421;SDS011;19763;55.798;37.782;2024-03-23T09:20:57;13.48;;;11.70;;
33421;SDS011;19763;55.798;37.782;2024-03-23T09:23:23;17.27;;;11.88;;
33421;SDS011;19763;55.798;37.782;2024-03-23T09:25:49;17.13;;;12.00;;
33421;SDS011;19763;55.798;37.782;2024-03-23T09:28:14;13.57;;;11.75;;
33421;SDS011;19763;55.798;37.782;2024-03-23T09:30:40;14.05;;;11.00;;
33421;SDS011;19763;55.798;37.782;2024-03-23T09:33:10;13.70;;;11.32;;
33421;SDS011;19763;55.798;37.782;2024-03-23T09:35:40;15.07;;;11.50;;
33421;SDS011;19763;55.798;37.782;2024-03-23T09:38:06;14.85;;;11.88;;
33421;SDS011;19763;55.798;37.782;2024-03-23T09:40:34;13.73;;;10.77;;
33421;SDS011;19763;55.798;37.782;2024-03-23T09:43:00;13.32;;;11.15;;
33421;SDS011;19763;55.798;37.782;2024-03-23T09:45:27;12.75;;;11.15;;
33421;SDS011;19763;55.798;37.782;2024-03-23T09:47:56;17.67;;;11.90;;
33421;SDS011;19763;55.798;37.782;2024-03-23T09:50:22;14.82;;;10.90;;
33421;SDS011;19763;55.798;37.782;2024-03-23T09:52:48;13.98;;;11.20;;
33421;SDS011;19763;55.798;37.782;2024-03-23T09:55:15;14.15;;;11.18;;
33421;SDS011;19763;55.798;37.782;2024-03-23T09:57:41;12.55;;;10.80;;
33421;SDS011;19763;55.798;37.782;2024-03-23T10:00:07;12.93;;;11.43;;
33421;SDS011;19763;55.798;37.782;2024-03-23T10:02:34;14.05;;;10.98;;
33421;SDS011;19763;55.798;37.782;2024-03-23T10:05:00;16.95;;;11.25;;
33421;SDS011;19763;55.798;37.782;2024-03-23T10:07:26;13.02;;;11.52;;
33421;SDS011;19763;55.798;37.782;2024-03-23T10:09:55;12.93;;;10.70;;
33421;SDS011;19763;55.798;37.782;2024-03-23T10:12:22;13.38;;;10.30;;
33421;SDS011;19763;55.798;37.782;2024-03-23T10:14:48;12.70;;;10.55;;
33421;SDS011;19763;55.798;37.782;2024-03-23T10:17:15;13.82;;;10.55;;
33421;SDS011;19763;55.798;37.782;2024-03-23T10:19:45;11.75;;;9.43;;
33421;SDS011;19763;55.798;37.782;2024-03-23T10:22:19;13.18;;;10.57;;
33421;SDS011;19763;55.798;37.782;2024-03-23T10:24:46;12.13;;;10.82;;
33421;SDS011;19763;55.798;37.782;2024-03-23T10:27:16;14.48;;;10.52;;
33421;SDS011;19763;55.798;37.782;2024-03-23T10:29:59;13.02;;;10.75;;
33421;SDS011;19763;55.798;37.782;2024-03-23T10:32:33;14.30;;;10.57;;
33421;SDS011;19763;55.798;37.782;2024-03-23T10:35:18;12.00;;;10.73;;
33421;SDS011;19763;55.798;37.782;2024-03-23T10:37:57;12.27;;;10.80;;
33421;SDS011;19763;55.798;37.782;2024-03-23T10:40:23;12.95;;;10.32;;
33421;SDS011;19763;55.798;37.782;2024-03-23T10:43:16;13.32;;;10.65;;
33421;SDS011;19763;55.798;37.782;2024-03-23T10:45:42;12.73;;;10.48;;
33421;SDS011;19763;55.798;37.782;2024-03-23T10:48:07;14.98;;;10.63;;
33421;SDS011;19763;55.798;37.782;2024-03-23T10:50:33;14.13;;;11.13;;
33421;SDS011;19763;55.798;37.782;2024-03-23T10:52:59;12.93;;;11.52;;
33421;SDS011;19763;55.798;37.782;2024-03-23T10:55:25;13.35;;;10.63;;
33421;SDS011;19763;55.798;37.782;2024-03-23T10:57:54;12.27;;;10.60;;
33421;SDS011;19763;55.798;37.782;2024-03-23T11:00:21;14.90;;;11.02;;
33421;SDS011;19763;55.798;37.782;2024-03-23T11:02:48;15.20;;;11.50;;
33421;SDS011;19763;55.798;37.782;2024-03-23T11:05:32;15.05;;;11.30;;
33421;SDS011;19763;55.798;37.782;2024-03-23T11:07:59;14.65;;;11.65;;
33421;SDS011;19763;55.798;37.782;2024-03-23T11:10:25;15.48;;;11.73;;
33421;SDS011;19763;55.798;37.782;2024-03-23T11:12:56;13.70;;;11.43;;
33421;SDS011;19763;55.798;37.782;2024-03-23T11:15:22;14.38;;;12.43;;
33421;SDS011;19763;55.798;37.782;2024-03-23T11:18:07;13.73;;;11.70;;
33421;SDS011;19763;55.798;37.782;2024-03-23T11:20:37;14.18;;;11.57;;
33421;SDS011;19763;55.798;37.782;2024-03-23T11:23:04;13.45;;;10.80;;
33421;SDS011;19763;55.798;37.782;2024-03-23T11:25:29;14.73;;;11.27;;
33421;SDS011;19763;55.798;37.782;2024-03-23T11:27:56;14.02;;;11.82;;
33421;SDS011;19763;55.798;37.782;2024-03-23T11:30:26;13.68;;;11.07;;
33421;SDS011;19763;55.798;37.782;2024-03-23T11:32:54;14.13;;;11.00;;
33421;SDS011;19763;55.798;37.782;2024-03-23T11:35:25;15.55;;;12.43;;
33421;SDS011;19763;55.798;37.782;2024-03-23T11:38:03;16.05;;;12.45;;
33421;SDS011;19763;55.798;37.782;2024-03-23T11:40:29;15.15;;;11.98;;
33421;SDS011;19763;55.798;37.782;2024-03-23T11:42:57;17.20;;;12.48;;
33421;SDS011;19763;55.798;37.782;2024-03-23T11:45:24;15.00;;;12.50;;
33421;SDS011;19763;55.798;37.782;2024-03-23T11:48:01;15.35;;;12.13;;
33421;SDS011;19763;55.798;37.782;2024-03-23T11:50:28;14.13;;;11.95;;
33421;SDS011;19763;55.798;37.782;2024-03-23T11:53:06;14.43;;;12.38;;
33421;SDS011;19763;55.798;37.782;2024-03-23T11:55:41;18.80;;;12.50;;
33421;SDS011;19763;55.798;37.782;2024-03-23T11:58:11;15.00;;;12.35;;
33421;SDS011;19763;55.798;37.782;2024-03-23T12:00:37;16.88;;;12.38;;
33421;SDS011;19763;55.798;37.782;2024-03-23T12:03:04;16.55;;;13.43;;
33421;SDS011;19763;55.798;37.782;2024-03-23T12:05:30;16.45;;;13.98;;
33421;SDS011;19763;55.798;37.782;2024-03-23T12:08:16;16.33;;;13.20;;
33421;SDS011;19763;55.798;37.782;2024-03-23T12:10:53;19.30;;;13.63;;
33421;SDS011;19763;55.798;37.782;2024-03-23T12:13:29;17.70;;;12.93;;
33421;SDS011;19763;55.798;37.782;2024-03-23T12:15:57;18.38;;;13.60;;
33421;SDS011;19763;55.798;37.782;2024-03-23T12:18:37;19.27;;;14.15;;
33421;SDS011;19763;55.798;37.782;2024-03-23T12:21:07;17.00;;;13.75;;
33421;SDS011;19763;55.798;37.782;2024-03-23T12:23:33;16.08;;;12.93;;
33421;SDS011;19763;55.798;37.782;2024-03-23T12:26:00;20.52;;;15.07;;
33421;SDS011;19763;55.798;37.782;2024-03-23T12:28:26;18.98;;;15.35;;
33421;SDS011;19763;55.798;37.782;2024-03-23T12:30:52;18.08;;;14.38;;
33421;SDS011;19763;55.798;37.782;2024-03-23T12:33:19;23.27;;;15.45;;
33421;SDS011;19763;55.798;37.782;2024-03-23T12:35:45;21.95;;;16.10;;
33421;SDS011;19763;55.798;37.782;2024-03-23T12:38:11;20.70;;;15.32;;
33421;SDS011;19763;55.798;37.782;2024-03-23T12:40:36;22.45;;;16.48;;
33421;SDS011;19763;55.798;37.782;2024-03-23T12:43:02;20.92;;;15.60;;
33421;SDS011;19763;55.798;37.782;2024-03-23T12:45:28;21.02;;;15.82;;
33421;SDS011;19763;55.798;37.782;2024-03-23T12:47:53;23.30;;;15.63;;
33421;SDS011;19763;55.798;37.782;2024-03-23T12:50:20;19.02;;;15.60;;
33421;SDS011;19763;55.798;37.782;2024-03-23T12:52:46;20.80;;;15.85;;
33421;SDS011;19763;55.798;37.782;2024-03-23T12:55:12;19.88;;;15.05;;
33421;SDS011;19763;55.798;37.782;2024-03-23T12:57:38;27.27;;;21.20;;
33421;SDS011;19763;55.798;37.782;2024-03-23T13:00:04;20.60;;;16.10;;
33421;SDS011;19763;55.798;37.782;2024-03-23T13:02:31;21.80;;;16.38;;
33421;SDS011;19763;55.798;37.782;2024-03-23T13:04:57;22.92;;;16.95;;
33421;SDS011;19763;55.798;37.782;2024-03-23T13:07:23;23.13;;;16.42;;
33421;SDS011;19763;55.798;37.782;2024-03-23T13:09:52;22.83;;;16.92;;
33421;SDS011;19763;55.798;37.782;2024-03-23T13:12:21;24.83;;;17.67;;
33421;SDS011;19763;55.798;37.782;2024-03-23T13:14:47;20.15;;;16.27;;
33421;SDS011;19763;55.798;37.782;2024-03-23T13:17:13;22.92;;;17.45;;
33421;SDS011;19763;55.798;37.782;2024-03-23T13:19:39;21.08;;;16.00;;
33421;SDS011;19763;55.798;37.782;2024-03-23T13:22:04;22.60;;;17.77;;
33421;SDS011;19763;55.798;37.782;2024-03-23T13:25:22;21.52;;;16.58;;
33421;SDS011;19763;55.798;37.782;2024-03-23T13:30:38;20.65;;;16.00;;
33421;SDS011;19763;55.798;37.782;2024-03-23T13:33:20;24.48;;;17.38;;
33421;SDS011;19763;55.798;37.782;2024-03-23T13:35:49;23.33;;;16.45;;
33421;SDS011;19763;55.798;37.782;2024-03-23T13:38:16;21.33;;;16.35;;
33421;SDS011;19763;55.798;37.782;2024-03-23T13:41:02;23.50;;;16.05;;
33421;SDS011;19763;55.798;37.782;2024-03-23T13:43:29;23.38;;;16.88;;
33421;SDS011;19763;55.798;37.782;2024-03-23T13:45:56;20.35;;;16.13;;
33421;SDS011;19763;55.798;37.782;2024-03-23T13:48:25;20.83;;;16.35;;
33421;SDS011;19763;55.798;37.782;2024-03-23T13:51:03;20.02;;;15.77;;
33421;SDS011;19763;55.798;37.782;2024-03-23T13:53:36;22.25;;;15.35;;
33421;SDS011;19763;55.798;37.782;2024-03-23T13:56:01;21.55;;;15.85;;
33421;SDS011;19763;55.798;37.782;2024-03-23T13:58:28;18.73;;;14.63;;
33421;SDS011;19763;55.798;37.782;2024-03-23T14:00:55;19.17;;;14.82;;
33421;SDS011;19763;55.798;37.782;2024-03-23T14:03:23;21.52;;;14.82;;
33421;SDS011;19763;55.798;37.782;2024-03-23T14:05:48;21.63;;;15.48;;
33421;SDS011;19763;55.798;37.782;2024-03-23T14:08:14;19.33;;;13.82;;
33421;SDS011;19763;55.798;37.782;2024-03-23T14:10:40;18.00;;;13.50;;
33421;SDS011;19763;55.798;37.782;2024-03-23T14:13:06;16.20;;;12.70;;
33421;SDS011;19763;55.798;37.782;2024-03-23T14:15:33;15.70;;;13.00;;
33421;SDS011;19763;55.798;37.782;2024-03-23T14:18:04;17.23;;;12.55;;
33421;SDS011;19763;55.798;37.782;2024-03-23T14:21:28;19.77;;;13.82;;
33421;SDS011;19763;55.798;37.782;2024-03-23T14:26:46;17.70;;;12.70;;
33421;SDS011;19763;55.798;37.782;2024-03-23T14:29:35;15.55;;;11.75;;
33421;SDS011;19763;55.798;37.782;2024-03-23T14:32:01;16.42;;;11.52;;
33421;SDS011;19763;55.798;37.782;2024-03-23T14:34:26;15.75;;;12.65;;
33421;SDS011;19763;55.798;37.782;2024-03-23T14:36:58;15.20;;;11.85;;
33421;SDS011;19763;55.798;37.782;2024-03-23T14:39:41;14.57;;;11.70;;
33421;SDS011;19763;55.798;37.782;2024-03-23T14:45:13;13.15;;;10.65;;
33421;SDS011;19763;55.798;37.782;2024-03-23T14:47:40;13.02;;;10.77;;
33421;SDS011;19763;55.798;37.782;2024-03-23T14:50:21;13.32;;;10.32;;
33421;SDS011;19763;55.798;37.782;2024-03-23T14:53:06;13.32;;;10.07;;
33421;SDS011;19763;55.798;37.782;2024-03-23T14:58:24;14.45;;;10.68;;
33421;SDS011;19763;55.798;37.782;2024-03-23T15:04:32;12.82;;;10.18;;
33421;SDS011;19763;55.798;37.782;2024-03-23T15:06:58;14.95;;;10.85;;
33421;SDS011;19763;55.798;37.782;2024-03-23T15:12:23;14.05;;;10.55;;
33421;SDS011;19763;55.798;37.782;2024-03-23T15:14:54;14.98;;;10.18;;
33421;SDS011;19763;55.798;37.782;2024-03-23T15:17:24;12.93;;;10.27;;
33421;SDS011;19763;55.798;37.782;2024-03-23T15:19:52;14.90;;;10.43;;
33421;SDS011;19763;55.798;37.782;2024-03-23T15:22:19;13.15;;;10.07;;
33421;SDS011;19763;55.798;37.782;2024-03-23T15:24:46;12.77;;;9.75;;